createdAt,value
2018-07-17T00:03:22.044Z,17.50
2018-07-17T00:05:51.424Z,17.50
2018-07-17T00:08:21.695Z,17.40
2018-07-17T00:10:51.060Z,17.50
2018-07-17T00:13:20.404Z,17.60
2018-07-17T00:15:49.747Z,17.60
2018-07-17T00:18:19.043Z,17.40
2018-07-17T00:20:48.400Z,16.80
2018-07-17T00:25:46.774Z,16.30
2018-07-17T00:30:45.056Z,16.40
2018-07-17T00:33:14.416Z,16.50
2018-07-17T00:35:43.768Z,16.20
2018-07-17T00:38:13.442Z,16.40
2018-07-17T00:40:42.775Z,16.30
2018-07-17T00:43:12.095Z,16.40
2018-07-17T00:45:41.475Z,16.10
2018-07-17T00:48:10.837Z,16.00
2018-07-17T00:50:40.161Z,16.30
2018-07-17T00:53:09.649Z,16.10
2018-07-17T00:55:39.191Z,16.10
2018-07-17T00:58:08.563Z,15.90
2018-07-17T01:00:43.128Z,15.80
2018-07-17T01:03:17.658Z,15.90
2018-07-17T01:05:52.751Z,16.10
2018-07-17T01:08:32.941Z,16.30
2018-07-17T01:14:24.255Z,16.40
2018-07-17T01:16:59.188Z,16.20
2018-07-17T01:21:57.413Z,16.30
2018-07-17T01:24:26.797Z,16.20
2018-07-17T01:26:56.121Z,16.20
2018-07-17T01:29:25.511Z,16.30
2018-07-17T01:31:54.827Z,16.30
2018-07-17T01:34:24.164Z,16.30
2018-07-17T01:36:53.491Z,16.40
2018-07-17T01:39:22.864Z,15.90
2018-07-17T01:41:52.195Z,15.50
2018-07-17T01:44:22.096Z,15.20
2018-07-17T01:46:51.441Z,15.30
2018-07-17T01:49:20.798Z,15.50
2018-07-17T01:51:50.487Z,15.90
2018-07-17T01:54:19.863Z,16.10
2018-07-17T01:56:49.223Z,16.20
2018-07-17T01:59:18.544Z,16.30
2018-07-17T02:01:47.915Z,16.10
2018-07-17T02:04:17.256Z,15.90
2018-07-17T02:09:16.443Z,15.60
2018-07-17T02:11:45.847Z,15.70
2018-07-17T02:14:15.207Z,15.80
2018-07-17T02:19:13.449Z,15.60
2018-07-17T02:21:42.800Z,15.20
2018-07-17T02:24:12.095Z,14.90
2018-07-17T02:29:10.367Z,15.20
2018-07-17T02:31:39.727Z,15.30
2018-07-17T02:34:09.018Z,15.40
2018-07-17T02:36:38.599Z,15.20
2018-07-17T02:39:08.781Z,15.20
2018-07-17T02:41:38.154Z,15.50
2018-07-17T02:44:07.470Z,15.40
2018-07-17T02:46:36.821Z,15.30
2018-07-17T02:49:06.227Z,15.00
2018-07-17T02:51:35.560Z,14.70
2018-07-17T02:54:04.924Z,14.70
2018-07-17T02:56:34.240Z,15.00
2018-07-17T02:59:03.609Z,15.20
2018-07-17T03:01:32.985Z,15.00
2018-07-17T03:04:02.367Z,15.00
2018-07-17T03:06:31.827Z,14.80
2018-07-17T03:09:01.148Z,15.00
2018-07-17T03:11:30.482Z,15.20
2018-07-17T03:13:59.859Z,15.10
2018-07-17T03:16:29.464Z,15.20
2018-07-17T03:18:58.799Z,15.40
2018-07-17T03:21:28.129Z,15.50
2018-07-17T03:23:57.490Z,15.60
2018-07-17T03:26:26.797Z,15.50
2018-07-17T03:28:56.143Z,15.40
2018-07-17T03:31:25.497Z,15.50
2018-07-17T03:33:54.933Z,15.50
2018-07-17T03:36:24.266Z,15.50
2018-07-17T03:38:53.631Z,15.40
2018-07-17T03:41:22.975Z,15.00
2018-07-17T03:43:52.335Z,15.20
2018-07-17T03:46:21.647Z,15.20
2018-07-17T03:48:50.942Z,15.00
2018-07-17T03:51:20.283Z,14.90
2018-07-17T03:53:49.603Z,15.10
2018-07-17T03:56:18.950Z,15.40
2018-07-17T03:58:48.299Z,15.40
2018-07-17T04:01:18.035Z,15.50
2018-07-17T04:06:16.263Z,15.20
2018-07-17T04:08:45.733Z,15.20
2018-07-17T04:11:15.014Z,15.30
2018-07-17T04:13:44.339Z,15.30
2018-07-17T04:18:42.694Z,15.20
2018-07-17T04:21:12.076Z,15.40
2018-07-17T04:23:41.760Z,15.60
2018-07-17T04:26:11.088Z,15.50
2018-07-17T04:28:40.418Z,15.50
2018-07-17T04:31:09.739Z,15.60
2018-07-17T04:33:39.028Z,15.60
2018-07-17T04:36:08.878Z,15.60
2018-07-17T04:38:38.191Z,15.90
2018-07-17T04:41:07.830Z,15.90
2018-07-17T04:43:37.155Z,15.90
2018-07-17T04:46:06.977Z,16.00
2018-07-17T04:48:36.304Z,16.00
2018-07-17T04:51:05.747Z,16.10
2018-07-17T04:53:35.132Z,16.10
2018-07-17T04:56:04.475Z,16.30
2018-07-17T04:58:33.826Z,16.40
2018-07-17T05:01:03.139Z,16.50
2018-07-17T05:03:32.480Z,16.90
2018-07-17T05:06:01.807Z,17.20
2018-07-17T05:08:31.198Z,17.20
2018-07-17T05:11:00.472Z,17.30
2018-07-17T05:18:27.502Z,18.00
2018-07-17T05:20:56.840Z,18.10
2018-07-17T05:23:26.168Z,18.20
2018-07-17T05:25:55.530Z,18.40
2018-07-17T05:28:24.868Z,18.60
2018-07-17T05:30:54.187Z,18.80
2018-07-17T05:33:23.491Z,19.00
2018-07-17T05:35:52.812Z,19.10
2018-07-17T05:38:22.508Z,19.20
2018-07-17T05:40:51.814Z,19.50
2018-07-17T05:43:21.143Z,19.70
2018-07-17T05:45:50.901Z,20.00
2018-07-17T05:48:20.627Z,20.00
2018-07-17T05:50:49.944Z,20.30
2018-07-17T05:53:19.287Z,20.40
2018-07-17T05:55:48.642Z,20.70
2018-07-17T05:58:17.932Z,20.90
2018-07-17T06:00:47.250Z,20.80
2018-07-17T06:03:16.568Z,20.70
2018-07-17T06:05:45.915Z,20.60
2018-07-17T06:10:44.173Z,20.90
2018-07-17T06:13:13.461Z,20.90
2018-07-17T06:15:42.797Z,21.10
2018-07-17T06:18:12.093Z,21.10
2018-07-17T06:20:41.546Z,21.50
2018-07-17T06:25:39.784Z,21.90
2018-07-17T06:28:09.085Z,21.90
2018-07-17T06:30:38.439Z,21.60
2018-07-17T06:33:07.766Z,21.70
2018-07-17T06:35:37.112Z,21.80
2018-07-17T06:38:06.750Z,22.50
2018-07-17T06:40:36.231Z,22.80
2018-07-17T06:43:05.564Z,23.00
2018-07-17T06:45:35.376Z,23.10
2018-07-17T06:48:04.670Z,23.40
2018-07-17T06:50:34.217Z,23.80
2018-07-17T06:53:03.435Z,23.70
2018-07-17T06:55:32.728Z,23.90
2018-07-17T06:58:02.407Z,24.00
2018-07-17T07:00:31.736Z,24.40
2018-07-17T07:05:29.926Z,24.40
2018-07-17T07:07:59.306Z,24.40
2018-07-17T07:10:28.718Z,24.80
2018-07-17T07:12:58.065Z,24.80
2018-07-17T07:15:27.363Z,24.90
2018-07-17T07:17:56.704Z,25.10
2018-07-17T07:20:26.011Z,25.20
2018-07-17T07:22:55.344Z,25.50
2018-07-17T07:25:24.663Z,25.60
2018-07-17T07:27:54.018Z,25.60
2018-07-17T07:30:23.354Z,25.90
2018-07-17T07:32:52.712Z,25.70
2018-07-17T07:35:22.054Z,26.00
2018-07-17T07:37:51.630Z,26.20
2018-07-17T07:40:21.179Z,26.20
2018-07-17T07:42:50.570Z,26.20
2018-07-17T07:45:19.902Z,26.70
2018-07-17T07:47:49.228Z,26.40
2018-07-17T07:50:18.552Z,25.90
2018-07-17T07:52:47.879Z,26.00
2018-07-17T07:55:17.284Z,26.40
2018-07-17T07:57:46.784Z,26.10
2018-07-17T08:00:16.155Z,26.60
2018-07-17T08:02:45.470Z,26.80
2018-07-17T08:05:14.824Z,26.90
2018-07-17T08:07:44.182Z,27.10
2018-07-17T08:10:13.615Z,27.30
2018-07-17T08:12:42.949Z,27.60
2018-07-17T08:15:12.324Z,27.80
2018-07-17T08:17:42.101Z,28.10
2018-07-17T08:20:11.421Z,28.20
2018-07-17T08:22:40.787Z,28.10
2018-07-17T08:25:10.123Z,27.70
2018-07-17T08:27:39.440Z,27.80
2018-07-17T08:30:08.760Z,28.50
2018-07-17T08:32:38.128Z,28.80
2018-07-17T08:35:07.791Z,29.20
2018-07-17T08:37:37.147Z,28.30
2018-07-17T08:40:06.463Z,27.60
2018-07-17T08:42:35.797Z,28.80
2018-07-17T08:45:05.096Z,29.30
2018-07-17T08:47:34.476Z,29.70
2018-07-17T08:50:04.158Z,29.90
2018-07-17T08:52:33.520Z,29.80
2018-07-17T08:55:02.813Z,29.40
2018-07-17T08:57:32.154Z,29.60
2018-07-17T09:00:01.443Z,29.10
2018-07-17T09:02:30.767Z,29.60
2018-07-17T09:05:00.113Z,30.30
2018-07-17T09:07:29.510Z,30.70
2018-07-17T09:09:58.821Z,31.00
2018-07-17T09:12:28.190Z,30.50
2018-07-17T09:14:57.491Z,30.50
2018-07-17T09:17:26.826Z,29.40
2018-07-17T09:19:56.137Z,30.40
2018-07-17T09:22:25.568Z,30.90
2018-07-17T09:27:23.846Z,31.80
2018-07-17T09:32:22.121Z,31.20
2018-07-17T09:34:51.442Z,31.40
2018-07-17T09:37:20.897Z,31.30
2018-07-17T09:39:50.232Z,31.00
2018-07-17T09:44:48.485Z,31.40
2018-07-17T09:47:17.824Z,30.30
2018-07-17T09:49:47.131Z,30.20
2018-07-17T09:52:16.430Z,30.40
2018-07-17T09:57:15.056Z,31.20
2018-07-17T09:59:44.391Z,31.00
2018-07-17T10:02:18.893Z,31.70
2018-07-17T10:04:48.260Z,32.10
2018-07-17T10:07:17.613Z,31.40
2018-07-17T10:09:46.948Z,30.40
2018-07-17T10:14:45.124Z,30.10
2018-07-17T10:17:14.416Z,29.60
2018-07-17T10:19:43.727Z,29.90
2018-07-17T10:22:13.063Z,30.40
2018-07-17T10:24:42.635Z,31.40
2018-07-17T10:27:12.030Z,31.50
2018-07-17T10:29:41.385Z,32.40
2018-07-17T10:32:10.799Z,33.30
2018-07-17T10:34:40.146Z,33.10
2018-07-17T10:39:38.393Z,32.20
2018-07-17T10:42:07.979Z,32.70
2018-07-17T10:44:37.284Z,32.50
2018-07-17T10:47:06.890Z,31.80
2018-07-17T10:49:36.187Z,30.60
2018-07-17T10:52:05.497Z,29.40
2018-07-17T10:54:34.837Z,28.90
2018-07-17T10:57:04.192Z,28.20
2018-07-17T10:59:33.895Z,28.70
2018-07-17T11:04:32.118Z,30.50
2018-07-17T11:09:30.319Z,31.40
2018-07-17T11:16:57.363Z,30.50
2018-07-17T11:19:26.735Z,29.60
2018-07-17T11:21:56.035Z,29.40
2018-07-17T11:24:25.367Z,30.30
2018-07-17T11:26:54.655Z,31.00
2018-07-17T11:29:23.987Z,31.10
2018-07-17T11:34:22.268Z,31.00
2018-07-17T11:36:51.963Z,31.60
2018-07-17T11:39:21.291Z,31.60
2018-07-17T11:41:50.581Z,31.60
2018-07-17T11:44:19.916Z,31.40
2018-07-17T11:46:49.259Z,31.60
2018-07-17T11:49:18.588Z,31.90
2018-07-17T11:51:47.884Z,32.20
2018-07-17T11:54:18.302Z,32.80
2018-07-17T11:56:47.623Z,32.80
2018-07-17T11:59:17.050Z,33.10
2018-07-17T12:01:46.359Z,32.40
2018-07-17T12:04:15.712Z,32.40
2018-07-17T12:06:45.095Z,33.50
2018-07-17T12:09:14.406Z,33.80
2018-07-17T12:11:43.716Z,34.00
2018-07-17T12:16:41.883Z,32.50
2018-07-17T12:19:11.184Z,32.40
2018-07-17T12:24:09.464Z,32.80
2018-07-17T12:26:38.810Z,33.30
2018-07-17T12:29:08.095Z,33.60
2018-07-17T12:34:06.268Z,33.50
2018-07-17T12:36:35.628Z,33.80
2018-07-17T12:39:06.734Z,33.60
2018-07-17T12:41:36.094Z,33.80
2018-07-17T12:44:05.571Z,33.90
2018-07-17T12:46:34.932Z,33.30
2018-07-17T12:49:04.372Z,33.20
2018-07-17T12:51:34.094Z,33.60
2018-07-17T12:54:03.468Z,33.90
2018-07-17T12:56:32.838Z,33.30
2018-07-17T12:59:02.153Z,33.60
2018-07-17T13:01:31.495Z,32.90
2018-07-17T13:04:00.840Z,32.80
2018-07-17T13:06:30.239Z,32.60
2018-07-17T13:08:59.567Z,33.30
2018-07-17T13:11:28.987Z,32.80
2018-07-17T13:13:58.294Z,33.30
2018-07-17T13:16:27.679Z,32.80
2018-07-17T13:18:56.990Z,33.50
2018-07-17T13:21:26.292Z,33.30
2018-07-17T13:23:55.986Z,32.70
2018-07-17T13:26:25.307Z,32.80
2018-07-17T13:28:54.632Z,33.20
2018-07-17T13:31:23.970Z,33.00
2018-07-17T13:33:53.360Z,33.20
2018-07-17T13:36:22.674Z,32.60
2018-07-17T13:38:52.011Z,31.80
2018-07-17T13:43:50.282Z,31.40
2018-07-17T13:46:19.602Z,31.10
2018-07-17T13:48:49.028Z,30.70
2018-07-17T13:53:47.204Z,31.00
2018-07-17T13:58:36.976Z,31.10
2018-07-17T14:01:06.295Z,31.30
2018-07-17T14:03:35.674Z,31.50
2018-07-17T14:06:05.340Z,31.50
2018-07-17T14:08:34.659Z,31.00
2018-07-17T14:11:04.016Z,30.90
2018-07-17T14:13:33.900Z,30.40
2018-07-17T14:18:32.204Z,30.80
2018-07-17T14:21:01.612Z,30.90
2018-07-17T14:23:30.955Z,30.80
2018-07-17T14:26:00.305Z,30.70
2018-07-17T14:28:29.582Z,30.80
2018-07-17T14:30:58.911Z,30.80
2018-07-17T14:33:28.217Z,31.00
2018-07-17T14:35:57.583Z,31.00
2018-07-17T14:38:26.903Z,31.00
2018-07-17T14:40:56.704Z,30.80
2018-07-17T14:43:26.014Z,30.60
2018-07-17T14:45:55.322Z,30.50
2018-07-17T14:50:53.568Z,30.40
2018-07-17T14:53:22.876Z,30.40
2018-07-17T14:55:52.208Z,30.50
2018-07-17T14:58:21.520Z,30.60
2018-07-17T15:00:50.853Z,30.40
2018-07-17T15:03:20.519Z,30.30
2018-07-17T15:08:19.592Z,29.90
2018-07-17T15:10:48.872Z,30.00
2018-07-17T15:13:18.203Z,30.10
2018-07-17T15:15:47.525Z,29.90
2018-07-17T15:18:16.853Z,29.70
2018-07-17T15:20:46.215Z,29.80
2018-07-17T15:23:15.556Z,29.60
2018-07-17T15:28:13.798Z,29.20
2018-07-17T15:30:43.072Z,29.00
2018-07-17T15:33:12.425Z,28.80
2018-07-17T15:35:41.739Z,28.70
2018-07-17T15:38:11.055Z,28.80
2018-07-17T15:40:40.375Z,28.90
2018-07-17T15:43:09.711Z,29.00
2018-07-17T15:45:39.020Z,29.20
2018-07-17T15:48:08.341Z,29.40
2018-07-17T15:50:37.680Z,29.40
2018-07-17T15:53:07.052Z,29.30
2018-07-17T15:55:36.392Z,29.10
2018-07-17T15:58:05.671Z,29.00
2018-07-17T16:03:03.901Z,29.10
2018-07-17T16:05:33.234Z,29.20
2018-07-17T16:08:02.559Z,29.10
2018-07-17T16:10:31.893Z,29.20
2018-07-17T16:13:01.291Z,29.10
2018-07-17T16:17:59.430Z,28.90
2018-07-17T16:20:28.747Z,28.70
2018-07-17T16:22:58.042Z,28.60
2018-07-17T16:27:56.465Z,28.30
2018-07-17T16:30:26.225Z,28.10
2018-07-17T16:32:55.511Z,28.10
2018-07-17T16:35:24.871Z,28.00
2018-07-17T16:37:54.177Z,27.80
2018-07-17T16:40:23.534Z,27.80
2018-07-17T16:42:53.023Z,27.70
2018-07-17T16:45:22.754Z,27.50
2018-07-17T16:47:52.096Z,27.50
2018-07-17T16:50:21.380Z,27.60
2018-07-17T16:52:50.716Z,27.80
2018-07-17T16:55:20.037Z,27.70
2018-07-17T16:57:49.358Z,27.70
2018-07-17T17:00:18.686Z,27.70
2018-07-17T17:02:48.010Z,27.70
2018-07-17T17:05:17.350Z,27.50
2018-07-17T17:07:46.694Z,27.40
2018-07-17T17:10:16.002Z,27.50
2018-07-17T17:12:45.351Z,27.30
2018-07-17T17:15:14.663Z,27.20
2018-07-17T17:17:44.019Z,27.00
2018-07-17T17:20:13.363Z,26.90
2018-07-17T17:22:42.784Z,26.70
2018-07-17T17:25:12.123Z,26.70
2018-07-17T17:27:41.682Z,26.70
2018-07-17T17:30:10.998Z,26.70
2018-07-17T17:32:40.395Z,26.40
2018-07-17T17:35:09.711Z,26.20
2018-07-17T17:37:39.079Z,26.00
2018-07-17T17:40:08.391Z,25.80
2018-07-17T17:42:38.350Z,25.80
2018-07-17T17:45:07.672Z,25.60
2018-07-17T17:50:05.827Z,25.60
2018-07-17T17:52:35.187Z,25.80
2018-07-17T17:55:04.868Z,25.50
2018-07-17T17:57:34.231Z,25.50
2018-07-17T18:00:03.686Z,25.40
2018-07-17T18:02:33.047Z,25.40
2018-07-17T18:05:02.415Z,25.30
2018-07-17T18:07:31.804Z,25.30
2018-07-17T18:10:01.408Z,25.20
2018-07-17T18:12:30.804Z,25.10
2018-07-17T18:15:00.142Z,25.20
2018-07-17T18:17:29.485Z,25.10
2018-07-17T18:19:58.805Z,25.10
2018-07-17T18:22:28.142Z,25.00
2018-07-17T18:24:57.510Z,24.90
2018-07-17T18:27:26.852Z,24.90
2018-07-17T18:29:56.215Z,24.90
2018-07-17T18:32:25.568Z,25.00
2018-07-17T18:34:54.944Z,24.90
2018-07-17T18:37:24.315Z,25.00
2018-07-17T18:39:53.668Z,25.10
2018-07-17T18:42:23.003Z,24.90
2018-07-17T18:44:52.357Z,24.70
2018-07-17T18:47:21.656Z,24.60
2018-07-17T18:50:12.000Z,24.50
2018-07-17T18:52:20.573Z,24.50
2018-07-17T18:54:49.925Z,24.30
2018-07-17T18:57:19.228Z,24.30
2018-07-17T18:59:48.644Z,24.20
2018-07-17T19:02:17.931Z,24.10
2018-07-17T19:04:47.247Z,24.10
2018-07-17T19:07:16.613Z,24.10
2018-07-17T19:09:45.949Z,23.90
2018-07-17T19:14:44.153Z,23.90
2018-07-17T19:17:13.825Z,23.80
2018-07-17T19:19:43.138Z,23.80
2018-07-17T19:24:41.918Z,23.80
2018-07-17T19:27:11.324Z,23.60
2018-07-17T19:29:40.647Z,23.60
2018-07-17T19:32:09.989Z,23.60
2018-07-17T19:34:39.309Z,23.60
2018-07-17T19:37:08.711Z,23.50
2018-07-17T19:39:38.044Z,23.50
2018-07-17T19:42:07.382Z,23.40
2018-07-17T19:44:36.679Z,23.30
2018-07-17T19:47:06.264Z,23.30
2018-07-17T19:52:04.567Z,23.20
2018-07-17T19:54:33.880Z,23.20
2018-07-17T19:57:03.280Z,23.10
2018-07-17T19:59:32.603Z,23.00
2018-07-17T20:02:01.985Z,23.00
2018-07-17T20:04:31.505Z,22.90
2018-07-17T20:07:00.944Z,22.80
2018-07-17T20:09:30.271Z,22.80
2018-07-17T20:11:59.577Z,22.80
2018-07-17T20:14:28.916Z,22.70
2018-07-17T20:16:58.222Z,22.60
2018-07-17T20:19:27.565Z,22.60
2018-07-17T20:21:56.880Z,22.70
2018-07-17T20:24:26.267Z,22.60
2018-07-17T20:26:55.576Z,22.60
2018-07-17T20:29:24.917Z,22.50
2018-07-17T20:31:54.328Z,22.40
2018-07-17T20:34:23.703Z,22.30
2018-07-17T20:36:53.011Z,22.30
2018-07-17T20:39:22.339Z,22.30
2018-07-17T20:41:51.660Z,22.20
2018-07-17T20:44:21.015Z,22.20
2018-07-17T20:46:50.391Z,22.20
2018-07-17T20:49:19.714Z,22.20
2018-07-17T20:51:49.019Z,22.20
2018-07-17T20:54:18.338Z,22.20
2018-07-17T20:56:47.666Z,22.10
2018-07-17T20:59:17.014Z,22.10
2018-07-17T21:01:46.316Z,22.10
2018-07-17T21:04:15.639Z,22.00
2018-07-17T21:06:45.008Z,22.00
2018-07-17T21:09:14.373Z,22.00
2018-07-17T21:11:43.729Z,21.90
2018-07-17T21:14:13.448Z,21.80
2018-07-17T21:16:42.780Z,21.70
2018-07-17T21:19:12.136Z,21.50
2018-07-17T21:21:41.471Z,21.40
2018-07-17T21:24:10.834Z,21.50
2018-07-17T21:26:40.215Z,21.50
2018-07-17T21:29:09.568Z,21.50
2018-07-17T21:34:07.967Z,21.40
2018-07-17T21:36:37.781Z,21.40
2018-07-17T21:39:09.206Z,21.30
2018-07-17T21:41:38.591Z,21.30
2018-07-17T21:44:08.007Z,21.30
2018-07-17T21:46:37.351Z,21.30
2018-07-17T21:49:06.684Z,21.20
2018-07-17T21:51:36.047Z,21.20
2018-07-17T21:54:05.422Z,21.10
2018-07-17T21:59:03.768Z,20.90
2018-07-17T22:01:33.168Z,20.90
2018-07-17T22:04:02.889Z,20.90
2018-07-17T22:06:32.263Z,20.90
2018-07-17T22:09:01.555Z,20.90
2018-07-17T22:11:30.871Z,20.80
2018-07-17T22:14:00.551Z,20.90
2018-07-17T22:18:58.768Z,20.80
2018-07-17T22:21:28.049Z,20.70
2018-07-17T22:23:57.367Z,20.60
2018-07-17T22:26:26.737Z,20.80
2018-07-17T22:28:56.085Z,20.70
2018-07-17T22:31:25.405Z,20.70
2018-07-17T22:33:55.112Z,20.60
2018-07-17T22:36:24.415Z,20.60
2018-07-17T22:38:54.196Z,20.80
2018-07-17T22:41:23.521Z,20.80
2018-07-17T22:43:53.316Z,20.70
2018-07-17T22:46:22.790Z,20.70
2018-07-17T22:48:52.150Z,20.70
2018-07-17T22:51:21.459Z,20.70
2018-07-17T22:53:50.839Z,20.70
2018-07-17T22:58:49.449Z,20.80
2018-07-17T23:01:19.050Z,20.70
2018-07-17T23:03:48.415Z,20.70
2018-07-17T23:06:17.736Z,20.70
2018-07-17T23:11:15.987Z,20.60
2018-07-17T23:13:45.325Z,20.60
2018-07-17T23:16:14.656Z,20.50
2018-07-17T23:18:44.006Z,20.50
2018-07-17T23:21:13.341Z,20.60
2018-07-17T23:23:42.696Z,20.60
2018-07-17T23:26:12.036Z,20.50
2018-07-17T23:28:41.793Z,20.60
2018-07-17T23:31:11.109Z,20.60
2018-07-17T23:38:38.644Z,20.70
2018-07-17T23:41:07.944Z,20.70
2018-07-17T23:46:07.259Z,20.80
2018-07-17T23:48:36.639Z,20.80
2018-07-17T23:51:05.935Z,20.70
2018-07-17T23:53:35.234Z,20.70
2018-07-17T23:58:33.400Z,20.80
